Time;durP1;ratioP1;P1;durP2;ratioP2;P2;SDS_P1;SDS_P2;PMS_P1;PMS_P2;Temp;Humidity;BMP_temperature;BMP_pressure;BME280_temperature;BME280_humidity;BME280_pressure;Samples;Min_cycle;Max_cycle;Signal;HPM_P1;HPM_P2
2023/05/01 00:01:38;;;;;;;4.07;3.60;;;;;;;;;;4998185;28;20529;-75
2023/05/01 00:04:03;;;;;;;10.98;7.40;;;;;;;;;;4981278;28;20034;-75
2023/05/01 00:06:28;;;;;;;10.85;7.07;;;;;;;;;;4998461;28;20026;-76
2023/05/01 00:08:54;;;;;;;7.22;5.15;;;;;;;;;;4999621;28;20018;-76
2023/05/01 00:11:19;;;;;;;3.50;3.20;;;;;;;;;;4980757;28;20439;-76
2023/05/01 00:13:45;;;;;;;4.18;3.85;;;;;;;;;;4998928;28;20396;-75
2023/05/01 00:16:11;;;;;;;4.80;4.40;;;;;;;;;;4999032;28;20018;-75
2023/05/01 00:18:36;;;;;;;4.93;4.18;;;;;;;;;;4998639;28;20863;-75
2023/05/01 00:21:02;;;;;;;4.28;3.97;;;;;;;;;;4998285;28;20033;-76
2023/05/01 00:23:27;;;;;;;4.13;3.80;;;;;;;;;;4981044;28;20030;-75
2023/05/01 00:25:52;;;;;;;5.03;4.50;;;;;;;;;;4981590;28;20116;-76
2023/05/01 00:28:18;;;;;;;5.78;5.28;;;;;;;;;;4998451;28;20153;-76
2023/05/01 00:30:45;;;;;;;4.35;4.05;;;;;;;;;;4998746;28;20263;-75
2023/05/01 00:33:11;;;;;;;4.68;4.28;;;;;;;;;;4998879;28;20033;-76
2023/05/01 00:35:36;;;;;;;6.00;5.50;;;;;;;;;;4998981;28;20372;-75
2023/05/01 00:38:02;;;;;;;4.53;4.20;;;;;;;;;;4980957;28;20384;-75
2023/05/01 00:40:27;;;;;;;4.82;4.47;;;;;;;;;;4997977;28;20519;-75
2023/05/01 00:42:53;;;;;;;5.57;5.05;;;;;;;;;;4999054;28;20030;-75
2023/05/01 00:45:18;;;;;;;5.47;5.05;;;;;;;;;;4998170;28;20061;-75
2023/05/01 00:47:43;;;;;;;5.45;4.97;;;;;;;;;;4999231;28;20029;-76
2023/05/01 00:50:09;;;;;;;5.38;4.93;;;;;;;;;;4979628;28;20030;-76
2023/05/01 00:52:35;;;;;;;5.43;4.88;;;;;;;;;;4999266;28;20022;-75
2023/05/01 00:55:00;;;;;;;5.32;4.45;;;;;;;;;;4998159;28;20033;-75
2023/05/01 00:57:25;;;;;;;5.88;5.20;;;;;;;;;;4981016;28;20459;-75
2023/05/01 00:59:51;;;;;;;6.22;5.72;;;;;;;;;;4998169;28;20030;-75
2023/05/01 01:02:16;;;;;;;6.13;5.53;;;;;;;;;;4998215;28;20018;-75
2023/05/01 01:04:43;;;;;;;6.07;5.57;;;;;;;;;;4962439;28;20137;-75
2023/05/01 01:07:20;;;;;;;6.97;6.32;;;;;;;;;;4997423;28;20088;-75
2023/05/01 01:09:48;;;;;;;7.00;6.40;;;;;;;;;;4998924;28;20141;-76
2023/05/01 01:12:23;;;;;;;6.82;5.85;;;;;;;;;;4998540;28;20036;-76
2023/05/01 01:14:57;;;;;;;6.05;5.45;;;;;;;;;;4982243;28;20028;-76
2023/05/01 01:17:36;;;;;;;6.22;5.63;;;;;;;;;;4984790;28;20024;-76
2023/05/01 01:20:20;;;;;;;4.78;4.38;;;;;;;;;;4983121;28;20042;-76
2023/05/01 01:23:06;;;;;;;5.32;4.93;;;;;;;;;;4984949;28;20034;-75
2023/05/01 01:25:49;;;;;;;6.63;6.00;;;;;;;;;;5001143;28;20041;-75
2023/05/01 01:28:17;;;;;;;5.60;5.10;;;;;;;;;;4983763;28;20467;-76
2023/05/01 01:30:51;;;;;;;7.78;7.05;;;;;;;;;;5001916;28;20100;-76
2023/05/01 01:33:17;;;;;;;9.88;7.80;;;;;;;;;;5000921;28;20113;-75
2023/05/01 01:35:46;;;;;;;8.23;7.43;;;;;;;;;;5002287;28;20113;-75
2023/05/01 01:38:22;;;;;;;8.50;7.40;;;;;;;;;;5001458;28;20022;-75
2023/05/01 01:41:23;;;;;;;9.35;8.43;;;;;;;;;;4996281;28;20030;-75
2023/05/01 01:43:57;;;;;;;9.55;6.93;;;;;;;;;;4902689;29;20490;-75
2023/05/01 01:46:22;;;;;;;9.45;8.43;;;;;;;;;;4967402;28;20061;-75
2023/05/01 01:48:49;;;;;;;8.98;8.10;;;;;;;;;;4984046;28;20034;-76
2023/05/01 01:51:17;;;;;;;9.48;8.55;;;;;;;;;;5000789;28;20014;-76
2023/05/01 01:53:45;;;;;;;10.85;9.85;;;;;;;;;;4983637;28;20029;-77
2023/05/01 01:56:11;;;;;;;10.30;9.25;;;;;;;;;;5001677;28;20026;-76
2023/05/01 01:58:38;;;;;;;9.02;8.25;;;;;;;;;;4982929;28;20038;-76
2023/05/01 02:01:05;;;;;;;7.97;7.38;;;;;;;;;;4983771;28;20026;-76
2023/05/01 02:03:31;;;;;;;12.15;10.20;;;;;;;;;;4982858;28;20030;-76
2023/05/01 02:05:57;;;;;;;9.10;8.20;;;;;;;;;;4984105;28;20566;-76
2023/05/01 02:08:23;;;;;;;10.18;9.32;;;;;;;;;;4982719;28;20025;-76
2023/05/01 02:10:49;;;;;;;8.90;8.18;;;;;;;;;;5000729;28;20025;-75
2023/05/01 02:13:16;;;;;;;9.02;8.30;;;;;;;;;;5000852;28;20029;-76
2023/05/01 02:15:43;;;;;;;9.07;8.30;;;;;;;;;;4982418;28;20069;-76
2023/05/01 02:18:09;;;;;;;8.85;8.07;;;;;;;;;;4983457;28;20567;-76
2023/05/01 02:20:35;;;;;;;9.23;8.43;;;;;;;;;;4999339;28;20044;-75
2023/05/01 02:23:02;;;;;;;7.95;7.25;;;;;;;;;;4983630;28;20036;-75
2023/05/01 02:25:29;;;;;;;10.30;9.40;;;;;;;;;;4999524;28;20054;-75
2023/05/01 02:27:56;;;;;;;10.05;9.25;;;;;;;;;;5001204;28;20041;-76
2023/05/01 02:30:21;;;;;;;10.60;9.60;;;;;;;;;;5000008;28;20124;-76
2023/05/01 02:32:46;;;;;;;9.35;8.65;;;;;;;;;;4983046;28;20622;-76
2023/05/01 02:35:12;;;;;;;9.00;8.20;;;;;;;;;;5000168;28;20021;-76
2023/05/01 02:37:37;;;;;;;12.00;11.00;;;;;;;;;;4982421;28;20037;-76
2023/05/01 02:40:03;;;;;;;11.98;10.63;;;;;;;;;;4982736;28;20052;-75
2023/05/01 02:42:30;;;;;;;13.77;11.50;;;;;;;;;;4999386;28;20026;-76
2023/05/01 02:44:57;;;;;;;9.43;8.63;;;;;;;;;;4983022;28;20029;-76
2023/05/01 02:47:23;;;;;;;9.38;8.57;;;;;;;;;;4999585;28;20018;-75
2023/05/01 02:49:50;;;;;;;10.32;9.32;;;;;;;;;;4999878;28;20042;-75
2023/05/01 02:52:16;;;;;;;10.60;9.68;;;;;;;;;;4982610;28;20484;-76
2023/05/01 02:54:43;;;;;;;11.48;10.13;;;;;;;;;;4981682;28;20036;-76
2023/05/01 02:57:09;;;;;;;10.75;9.68;;;;;;;;;;5000194;28;20021;-75
2023/05/01 02:59:34;;;;;;;11.85;10.75;;;;;;;;;;4999069;28;20056;-75
2023/05/01 03:02:00;;;;;;;17.30;15.60;;;;;;;;;;5000816;28;20372;-76
2023/05/01 03:04:25;;;;;;;11.60;9.68;;;;;;;;;;4999384;28;20057;-75
2023/05/01 03:06:51;;;;;;;9.25;8.45;;;;;;;;;;4982627;28;20144;-75
2023/05/01 03:09:16;;;;;;;11.10;10.20;;;;;;;;;;4999334;28;20029;-75
2023/05/01 03:11:41;;;;;;;10.45;9.55;;;;;;;;;;4999641;28;20385;-75
2023/05/01 03:14:07;;;;;;;10.95;10.07;;;;;;;;;;4999851;28;20092;-75
2023/05/01 03:16:33;;;;;;;9.88;9.07;;;;;;;;;;4981444;28;20969;-76
2023/05/01 03:18:58;;;;;;;10.95;9.95;;;;;;;;;;4964791;28;20038;-75
2023/05/01 03:21:23;;;;;;;12.38;11.10;;;;;;;;;;4998668;28;20021;-76
2023/05/01 03:23:48;;;;;;;12.93;11.63;;;;;;;;;;5000066;28;20123;-75
2023/05/01 03:26:14;;;;;;;10.65;9.75;;;;;;;;;;4981347;28;20313;-75
2023/05/01 03:28:39;;;;;;;10.55;9.52;;;;;;;;;;4981702;28;20109;-75
2023/05/01 03:31:05;;;;;;;12.93;11.75;;;;;;;;;;4999104;28;20022;-75
2023/05/01 03:33:31;;;;;;;11.00;10.20;;;;;;;;;;4998793;28;20032;-76
2023/05/01 03:36:00;;;;;;;11.55;10.35;;;;;;;;;;4999569;28;20423;-76
2023/05/01 03:38:26;;;;;;;11.35;10.32;;;;;;;;;;4998056;28;20033;-76
2023/05/01 03:40:51;;;;;;;11.73;10.73;;;;;;;;;;4999333;28;20041;-76
2023/05/01 03:43:16;;;;;;;12.80;11.70;;;;;;;;;;4998620;28;20037;-75
2023/05/01 03:45:42;;;;;;;44.83;31.75;;;;;;;;;;4999831;28;20472;-75
2023/05/01 03:48:07;;;;;;;25.00;22.23;;;;;;;;;;4981237;28;20531;-75
2023/05/01 03:50:32;;;;;;;20.05;17.40;;;;;;;;;;4980633;28;20018;-75
2023/05/01 03:52:57;;;;;;;16.48;14.73;;;;;;;;;;4999753;28;20026;-75
2023/05/01 03:55:23;;;;;;;17.08;15.57;;;;;;;;;;4998596;28;20506;-75
2023/05/01 03:57:48;;;;;;;16.02;13.57;;;;;;;;;;4999427;28;20029;-76
2023/05/01 04:00:14;;;;;;;11.25;10.35;;;;;;;;;;4980180;28;20060;-75
2023/05/01 04:02:39;;;;;;;11.13;10.13;;;;;;;;;;4982253;28;20026;-76
2023/05/01 04:05:04;;;;;;;11.77;10.68;;;;;;;;;;4998865;28;20493;-75
2023/05/01 04:07:30;;;;;;;13.68;12.38;;;;;;;;;;4999428;28;20028;-76
2023/05/01 04:09:55;;;;;;;13.60;12.40;;;;;;;;;;4998402;28;20044;-76
2023/05/01 04:12:20;;;;;;;12.73;11.38;;;;;;;;;;4998866;28;20455;-76
2023/05/01 04:14:46;;;;;;;9.38;8.68;;;;;;;;;;4981647;28;20010;-76
2023/05/01 04:17:11;;;;;;;11.48;10.55;;;;;;;;;;4980848;28;20025;-76
2023/05/01 04:19:36;;;;;;;8.95;8.25;;;;;;;;;;4998966;28;20022;-76
2023/05/01 04:22:02;;;;;;;9.45;8.45;;;;;;;;;;4998360;28;20014;-76
2023/05/01 04:24:27;;;;;;;9.57;8.68;;;;;;;;;;4981697;28;20060;-75
2023/05/01 04:26:53;;;;;;;10.88;9.65;;;;;;;;;;4980229;28;20628;-76
2023/05/01 04:29:18;;;;;;;14.67;8.77;;;;;;;;;;4998023;28;20026;-83
2023/05/01 04:31:43;;;;;;;9.70;8.93;;;;;;;;;;4998123;28;20260;-85
2023/05/01 04:34:09;;;;;;;10.75;9.77;;;;;;;;;;4998001;28;20029;-85
2023/05/01 04:36:34;;;;;;;11.85;10.65;;;;;;;;;;4999701;28;20053;-89
2023/05/01 04:38:59;;;;;;;11.10;7.93;;;;;;;;;;4982817;28;20033;-83
2023/05/01 04:41:26;;;;;;;6.40;5.80;;;;;;;;;;4998775;28;20268;-88
2023/05/01 04:43:51;;;;;;;9.60;6.30;;;;;;;;;;4980084;28;20262;-79
2023/05/01 04:46:17;;;;;;;6.23;5.73;;;;;;;;;;4999128;28;20027;-83
2023/05/01 04:48:42;;;;;;;30.27;6.32;;;;;;;;;;5005635;28;20343;-88
2023/05/01 04:51:08;;;;;;;5.43;4.95;;;;;;;;;;4984506;28;20026;-87
2023/05/01 04:53:36;;;;;;;5.45;4.95;;;;;;;;;;5004411;28;20523;-91
2023/05/01 04:56:01;;;;;;;3.70;3.40;;;;;;;;;;4987907;28;20173;-86
2023/05/01 04:58:26;;;;;;;6.07;3.55;;;;;;;;;;5004791;28;21172;-84
2023/05/01 05:00:52;;;;;;;3.67;3.38;;;;;;;;;;4982297;28;20468;-82
2023/05/01 05:03:18;;;;;;;4.18;3.88;;;;;;;;;;4984525;28;20399;-85
2023/05/01 05:05:44;;;;;;;15.93;6.00;;;;;;;;;;4983851;28;20114;-83
2023/05/01 05:08:09;;;;;;;6.70;5.80;;;;;;;;;;4986196;28;20491;-89
2023/05/01 05:10:35;;;;;;;6.18;5.75;;;;;;;;;;4987397;28;20017;-90
2023/05/01 05:13:00;;;;;;;5.87;5.40;;;;;;;;;;4986354;28;20034;-85
2023/05/01 05:15:26;;;;;;;5.55;5.15;;;;;;;;;;5002405;28;21197;-82
2023/05/01 05:17:51;;;;;;;6.85;6.32;;;;;;;;;;5001538;28;20074;-78
2023/05/01 05:20:16;;;;;;;5.57;5.13;;;;;;;;;;5001385;28;20126;-78
2023/05/01 05:22:41;;;;;;;6.65;6.15;;;;;;;;;;4982971;28;20658;-77
2023/05/01 05:25:07;;;;;;;5.63;5.03;;;;;;;;;;5001613;28;20069;-77
2023/05/01 05:27:36;;;;;;;4.72;4.32;;;;;;;;;;5000919;28;20407;-77
2023/05/01 05:30:03;;;;;;;5.18;4.82;;;;;;;;;;5000749;28;20049;-77
2023/05/01 05:32:29;;;;;;;6.13;5.38;;;;;;;;;;4999461;28;20717;-77
2023/05/01 05:34:55;;;;;;;5.47;4.97;;;;;;;;;;5000640;28;20025;-75
2023/05/01 05:37:20;;;;;;;4.90;4.60;;;;;;;;;;5001282;28;20423;-76
2023/05/01 05:39:45;;;;;;;6.37;5.77;;;;;;;;;;4982036;28;20304;-76
2023/05/01 05:42:11;;;;;;;5.27;4.77;;;;;;;;;;5001576;28;20030;-76
2023/05/01 05:44:37;;;;;;;4.70;4.30;;;;;;;;;;4989396;28;20014;-78
2023/05/01 05:47:03;;;;;;;4.57;4.28;;;;;;;;;;4983467;28;20507;-79
2023/05/01 05:49:28;;;;;;;4.60;4.22;;;;;;;;;;4993851;28;20108;-78
2023/05/01 05:51:54;;;;;;;4.03;3.80;;;;;;;;;;4996213;28;20404;-78
2023/05/01 05:54:20;;;;;;;4.97;4.10;;;;;;;;;;5000600;28;20072;-78
2023/05/01 05:56:45;;;;;;;4.70;4.30;;;;;;;;;;5000082;28;20495;-79
2023/05/01 05:59:10;;;;;;;6.57;4.03;;;;;;;;;;4999820;28;20301;-77
2023/05/01 06:01:36;;;;;;;4.40;4.00;;;;;;;;;;4997737;28;20057;-77
2023/05/01 06:04:02;;;;;;;4.22;3.70;;;;;;;;;;4983234;28;20034;-77
2023/05/01 06:06:27;;;;;;;3.90;3.60;;;;;;;;;;4977984;28;20037;-78
2023/05/01 06:08:53;;;;;;;4.30;3.67;;;;;;;;;;4984592;28;20038;-76
2023/05/01 06:11:20;;;;;;;3.87;3.43;;;;;;;;;;4969284;28;20571;-77
2023/05/01 06:13:45;;;;;;;3.67;3.47;;;;;;;;;;4981652;28;20424;-77
2023/05/01 06:16:10;;;;;;;4.30;3.90;;;;;;;;;;4983976;28;20088;-77
2023/05/01 06:18:36;;;;;;;5.63;5.00;;;;;;;;;;4998878;28;20804;-76
2023/05/01 06:21:02;;;;;;;4.93;4.53;;;;;;;;;;4999634;28;20558;-77
2023/05/01 06:23:27;;;;;;;5.35;5.05;;;;;;;;;;4980585;28;20033;-78
2023/05/01 06:25:52;;;;;;;6.32;5.72;;;;;;;;;;4982820;28;20095;-80
2023/05/01 06:28:18;;;;;;;5.75;5.32;;;;;;;;;;4978036;28;20037;-79
2023/05/01 06:30:43;;;;;;;5.65;5.20;;;;;;;;;;4979497;28;20026;-78
2023/05/01 06:33:09;;;;;;;46.22;6.30;;;;;;;;;;4994007;28;20022;-79
2023/05/01 06:35:35;;;;;;;5.53;5.22;;;;;;;;;;4980907;28;20385;-76
2023/05/01 06:38:01;;;;;;;6.18;5.43;;;;;;;;;;4976992;28;20381;-76
2023/05/01 06:40:26;;;;;;;61.78;10.23;;;;;;;;;;4996371;28;20025;-75
2023/05/01 06:42:52;;;;;;;5.75;5.35;;;;;;;;;;4991533;28;20026;-76
2023/05/01 06:45:17;;;;;;;5.38;4.97;;;;;;;;;;4976830;28;20053;-76
2023/05/01 06:47:42;;;;;;;5.78;5.28;;;;;;;;;;4964936;28;20053;-76
2023/05/01 06:50:08;;;;;;;5.43;4.97;;;;;;;;;;4989459;28;20084;-76
2023/05/01 06:52:34;;;;;;;5.65;4.57;;;;;;;;;;4996890;28;20029;-76
2023/05/01 06:54:59;;;;;;;5.40;4.90;;;;;;;;;;4973307;28;20116;-76
2023/05/01 06:57:25;;;;;;;4.28;3.97;;;;;;;;;;4971821;28;20089;-76
2023/05/01 06:59:50;;;;;;;4.30;4.00;;;;;;;;;;4975267;28;20137;-77
2023/05/01 07:02:15;;;;;;;4.97;4.43;;;;;;;;;;4980799;28;20396;-77
2023/05/01 07:04:43;;;;;;;10.63;5.17;;;;;;;;;;4992888;28;20300;-76
2023/05/01 07:07:08;;;;;;;5.82;4.95;;;;;;;;;;4984823;28;20030;-77
2023/05/01 07:09:33;;;;;;;5.25;4.75;;;;;;;;;;4976385;28;20112;-76
2023/05/01 07:11:59;;;;;;;6.13;5.72;;;;;;;;;;4986954;28;20041;-76
2023/05/01 07:14:24;;;;;;;6.43;5.97;;;;;;;;;;4973866;28;20215;-76
2023/05/01 07:16:49;;;;;;;6.00;5.60;;;;;;;;;;4977574;28;20462;-76
2023/05/01 07:19:15;;;;;;;6.25;5.78;;;;;;;;;;4975800;28;20463;-76
2023/05/01 07:21:40;;;;;;;6.50;5.95;;;;;;;;;;4966538;28;20034;-76
2023/05/01 07:24:05;;;;;;;7.83;7.30;;;;;;;;;;4971791;28;20392;-76
2023/05/01 07:26:31;;;;;;;7.07;6.53;;;;;;;;;;4988367;28;20043;-76
2023/05/01 07:28:56;;;;;;;6.72;5.97;;;;;;;;;;4970585;28;20034;-77
2023/05/01 07:31:22;;;;;;;5.72;5.35;;;;;;;;;;4991031;28;20030;-76
2023/05/01 07:33:47;;;;;;;5.78;5.25;;;;;;;;;;4976862;28;20026;-77
2023/05/01 07:36:13;;;;;;;6.38;5.88;;;;;;;;;;4974600;28;20080;-77
2023/05/01 07:38:38;;;;;;;6.28;5.70;;;;;;;;;;4975101;28;20548;-76
2023/05/01 07:41:05;;;;;;;6.45;5.95;;;;;;;;;;4992786;28;20046;-77
2023/05/01 07:43:30;;;;;;;9.37;6.70;;;;;;;;;;4969692;28;20018;-77
2023/05/01 07:46:00;;;;;;;7.10;6.60;;;;;;;;;;4975119;28;20277;-77
2023/05/01 07:48:26;;;;;;;7.68;6.97;;;;;;;;;;4967781;28;20050;-77
2023/05/01 07:50:52;;;;;;;6.55;5.72;;;;;;;;;;4982288;28;20415;-77
2023/05/01 07:53:17;;;;;;;5.65;5.20;;;;;;;;;;4993410;28;20033;-77
2023/05/01 07:55:42;;;;;;;6.38;5.82;;;;;;;;;;4974731;28;20022;-76
2023/05/01 07:58:08;;;;;;;7.93;6.47;;;;;;;;;;4977626;28;20132;-76
2023/05/01 08:00:34;;;;;;;6.85;6.07;;;;;;;;;;4980016;28;20128;-77
2023/05/01 08:02:59;;;;;;;5.78;5.25;;;;;;;;;;4978809;28;20029;-77
2023/05/01 08:05:25;;;;;;;9.48;5.07;;;;;;;;;;4992209;28;20553;-76
2023/05/01 08:07:50;;;;;;;5.70;4.80;;;;;;;;;;4978679;28;20493;-76
2023/05/01 08:10:15;;;;;;;4.82;4.50;;;;;;;;;;4966185;28;20269;-76
2023/05/01 08:12:41;;;;;;;5.43;5.00;;;;;;;;;;4994319;28;20026;-76
2023/05/01 08:15:06;;;;;;;4.40;4.10;;;;;;;;;;4973104;28;20049;-77
2023/05/01 08:17:32;;;;;;;3.67;3.38;;;;;;;;;;4967928;28;20687;-76
2023/05/01 08:19:59;;;;;;;6.38;2.95;;;;;;;;;;4971220;28;20036;-76
2023/05/01 08:22:24;;;;;;;4.15;3.85;;;;;;;;;;4971939;28;20042;-76
2023/05/01 08:24:49;;;;;;;5.63;4.43;;;;;;;;;;5001744;28;20022;-76
2023/05/01 08:27:15;;;;;;;5.07;4.70;;;;;;;;;;4984656;28;20033;-76
2023/05/01 08:29:40;;;;;;;4.28;3.97;;;;;;;;;;4983728;28;20021;-76
2023/05/01 08:32:05;;;;;;;4.85;4.55;;;;;;;;;;5001774;28;20559;-76
2023/05/01 08:34:31;;;;;;;5.00;4.50;;;;;;;;;;4984337;28;20025;-76
2023/05/01 08:36:57;;;;;;;4.43;3.97;;;;;;;;;;4996105;28;20026;-77
2023/05/01 08:39:23;;;;;;;4.13;3.92;;;;;;;;;;4994095;28;20566;-77
2023/05/01 08:41:48;;;;;;;5.72;4.00;;;;;;;;;;4978414;28;20022;-76
2023/05/01 08:44:17;;;;;;;5.65;4.13;;;;;;;;;;4978241;28;20032;-76
2023/05/01 08:47:06;;;;;;;3.83;3.53;;;;;;;;;;4983123;28;20030;-76
2023/05/01 08:49:32;;;;;;;4.38;3.90;;;;;;;;;;4973171;28;20136;-76
2023/05/01 08:51:57;;;;;;;5.05;3.58;;;;;;;;;;4984339;28;20033;-76
2023/05/01 08:54:23;;;;;;;3.72;3.42;;;;;;;;;;4983330;28;20022;-76
2023/05/01 08:56:50;;;;;;;3.67;3.30;;;;;;;;;;4983497;28;20028;-76
2023/05/01 08:59:17;;;;;;;3.55;3.25;;;;;;;;;;4982597;28;20124;-76
2023/05/01 09:01:43;;;;;;;3.63;3.33;;;;;;;;;;4984046;28;20407;-76
2023/05/01 09:04:09;;;;;;;3.28;2.92;;;;;;;;;;4983405;28;20030;-77
2023/05/01 09:06:35;;;;;;;2.72;2.53;;;;;;;;;;4978679;28;20056;-77
2023/05/01 09:09:00;;;;;;;3.08;2.88;;;;;;;;;;4981817;28;20068;-77
2023/05/01 09:11:26;;;;;;;2.83;2.63;;;;;;;;;;5001257;28;20022;-77
2023/05/01 09:13:52;;;;;;;7.25;3.00;;;;;;;;;;5002023;28;20053;-76
2023/05/01 09:16:17;;;;;;;2.85;2.47;;;;;;;;;;4982243;28;20384;-77
2023/05/01 09:18:43;;;;;;;2.40;2.20;;;;;;;;;;4984719;28;20112;-76
2023/05/01 09:21:09;;;;;;;2.92;1.80;;;;;;;;;;4970741;28;20030;-75
2023/05/01 09:23:36;;;;;;;3.70;2.33;;;;;;;;;;5002231;28;20072;-75
2023/05/01 09:26:05;;;;;;;1.70;1.60;;;;;;;;;;4983571;28;20907;-75
2023/05/01 09:28:43;;;;;;;2.00;1.80;;;;;;;;;;4979231;28;20028;-76
2023/05/01 09:31:24;;;;;;;2.08;1.90;;;;;;;;;;5002015;28;20026;-75
2023/05/01 09:33:57;;;;;;;2.10;1.90;;;;;;;;;;4994401;28;20030;-75
2023/05/01 09:36:32;;;;;;;1.90;1.80;;;;;;;;;;4998928;28;20104;-75
2023/05/01 09:39:01;;;;;;;3.25;1.75;;;;;;;;;;4982542;28;20153;-75
2023/05/01 09:41:27;;;;;;;1.92;1.83;;;;;;;;;;4981917;28;20026;-76
2023/05/01 09:43:53;;;;;;;2.25;2.05;;;;;;;;;;4980870;28;20045;-75
2023/05/01 09:46:19;;;;;;;3.00;1.80;;;;;;;;;;4976994;28;20099;-75
2023/05/01 09:48:53;;;;;;;2.28;1.83;;;;;;;;;;5000929;28;20134;-76
2023/05/01 09:51:20;;;;;;;2.05;1.85;;;;;;;;;;4981862;28;20511;-75
2023/05/01 09:53:46;;;;;;;1.55;1.45;;;;;;;;;;4999729;28;20022;-76
2023/05/01 09:56:11;;;;;;;1.80;1.70;;;;;;;;;;5000658;28;20038;-76
2023/05/01 09:58:36;;;;;;;2.40;1.60;;;;;;;;;;4998866;28;20029;-76
2023/05/01 10:01:02;;;;;;;2.73;1.40;;;;;;;;;;4995399;28;20022;-75
2023/05/01 10:03:27;;;;;;;1.60;1.50;;;;;;;;;;4982709;28;20730;-76
2023/05/01 10:05:55;;;;;;;2.58;1.50;;;;;;;;;;4983572;28;20313;-75
2023/05/01 10:08:21;;;;;;;1.80;1.70;;;;;;;;;;4982643;28;20021;-75
2023/05/01 10:10:58;;;;;;;1.52;1.42;;;;;;;;;;5001388;28;20049;-76
2023/05/01 10:13:24;;;;;;;2.38;1.92;;;;;;;;;;4994306;28;20019;-76
2023/05/01 10:15:49;;;;;;;4.45;1.80;;;;;;;;;;4982911;28;20068;-75
2023/05/01 10:18:15;;;;;;;7.40;2.13;;;;;;;;;;5001101;28;20030;-77
2023/05/01 10:20:41;;;;;;;2.03;1.70;;;;;;;;;;4978451;28;20033;-79
2023/05/01 10:23:07;;;;;;;19.10;2.03;;;;;;;;;;4983020;28;20029;-77
2023/05/01 10:25:32;;;;;;;1.80;0.98;;;;;;;;;;4981983;28;20092;-75
2023/05/01 10:27:58;;;;;;;5.50;1.30;;;;;;;;;;4999932;28;20037;-78
2023/05/01 10:30:25;;;;;;;3.08;1.17;;;;;;;;;;4982467;28;20049;-78
2023/05/01 10:32:51;;;;;;;1.67;0.80;;;;;;;;;;4992566;28;20105;-76
2023/05/01 10:35:28;;;;;;;1.35;1.00;;;;;;;;;;4995425;28;20021;-77
2023/05/01 10:38:10;;;;;;;1.55;0.80;;;;;;;;;;4999953;28;20056;-77
2023/05/01 10:40:38;;;;;;;1.40;0.70;;;;;;;;;;5001260;28;20494;-77
2023/05/01 10:43:16;;;;;;;1.48;0.70;;;;;;;;;;5000013;28;20018;-77
2023/05/01 10:45:42;;;;;;;1.17;0.63;;;;;;;;;;4979744;28;20036;-77
2023/05/01 10:48:07;;;;;;;1.55;0.65;;;;;;;;;;4998528;28;20474;-77
2023/05/01 10:50:33;;;;;;;0.60;0.60;;;;;;;;;;5000301;28;20037;-77
2023/05/01 10:53:14;;;;;;;1.20;0.88;;;;;;;;;;4982127;28;20300;-77
2023/05/01 10:55:43;;;;;;;3.30;0.60;;;;;;;;;;4981928;28;20559;-77
2023/05/01 10:58:09;;;;;;;;;;;;;;;;;;4984425;28;20061;-76
2023/05/01 11:00:34;;;;;;;0.73;0.73;;;;;;;;;;4981117;28;19968;-77
2023/05/01 11:03:18;;;;;;;1.10;1.00;;;;;;;;;;4997133;28;20493;-78
2023/05/01 11:05:58;;;;;;;2.20;1.10;;;;;;;;;;4991613;28;20295;-78
2023/05/01 11:08:31;;;;;;;1.20;1.08;;;;;;;;;;4987359;28;20033;-79
2023/05/01 11:10:56;;;;;;;2.17;1.30;;;;;;;;;;4992121;28;20026;-77
2023/05/01 11:13:40;;;;;;;1.42;1.30;;;;;;;;;;4990650;28;20029;-78
2023/05/01 11:16:26;;;;;;;3.45;1.52;;;;;;;;;;4985052;28;20473;-78
2023/05/01 11:18:51;;;;;;;2.53;1.20;;;;;;;;;;4971730;28;20042;-79
2023/05/01 11:21:16;;;;;;;2.05;1.17;;;;;;;;;;4985571;28;20037;-77
2023/05/01 11:23:45;;;;;;;1.67;1.30;;;;;;;;;;4999843;28;20033;-78
2023/05/01 11:26:11;;;;;;;1.38;1.27;;;;;;;;;;4981953;28;20017;-79
2023/05/01 11:28:37;;;;;;;1.08;1.08;;;;;;;;;;5001871;28;20048;-77
2023/05/01 11:31:02;;;;;;;1.77;1.08;;;;;;;;;;4998897;28;20022;-77
2023/05/01 11:33:28;;;;;;;2.05;1.10;;;;;;;;;;4990913;28;20097;-78
2023/05/01 11:35:58;;;;;;;2.88;0.80;;;;;;;;;;4989707;28;20045;-77
2023/05/01 11:38:23;;;;;;;0.98;0.80;;;;;;;;;;4999221;28;20116;-77
2023/05/01 11:40:52;;;;;;;0.82;0.77;;;;;;;;;;4980928;28;20475;-77
2023/05/01 11:43:18;;;;;;;;;;;;;;;;;;4996480;28;20037;-77
2023/05/01 11:45:43;;;;;;;0.70;0.70;;;;;;;;;;4997756;28;19917;-77
2023/05/01 11:48:17;;;;;;;1.38;1.02;;;;;;;;;;4984163;28;20794;-76
2023/05/01 11:50:43;;;;;;;1.40;0.57;;;;;;;;;;4988847;28;21578;-77
2023/05/01 11:53:14;;;;;;;0.60;0.60;;;;;;;;;;4972873;28;20109;-77
2023/05/01 11:55:39;;;;;;;0.75;0.70;;;;;;;;;;4971236;28;20034;-84
2023/05/01 11:58:05;;;;;;;2.60;1.00;;;;;;;;;;4971613;28;20040;-79
2023/05/01 12:00:32;;;;;;;2.35;1.10;;;;;;;;;;4970906;28;20038;-79
2023/05/01 12:03:02;;;;;;;2.33;1.48;;;;;;;;;;4977558;28;20027;-78
2023/05/01 12:05:28;;;;;;;4.78;1.67;;;;;;;;;;4989912;28;20033;-77
2023/05/01 12:08:05;;;;;;;1.23;1.13;;;;;;;;;;4999275;28;20026;-78
2023/05/01 12:10:31;;;;;;;1.38;1.27;;;;;;;;;;4995806;28;20028;-78
2023/05/01 12:12:56;;;;;;;1.60;1.40;;;;;;;;;;4981418;28;20022;-76
2023/05/01 12:15:21;;;;;;;1.80;1.25;;;;;;;;;;4974577;28;20026;-76
2023/05/01 12:17:49;;;;;;;2.03;1.73;;;;;;;;;;4989824;28;20033;-76
2023/05/01 12:20:14;;;;;;;1.10;1.00;;;;;;;;;;4979493;28;20033;-76
2023/05/01 12:22:49;;;;;;;1.63;1.23;;;;;;;;;;4997609;28;20109;-76
2023/05/01 12:25:15;;;;;;;2.47;1.30;;;;;;;;;;4999223;28;20026;-75
2023/05/01 12:27:44;;;;;;;1.77;1.42;;;;;;;;;;4980001;28;20068;-75
2023/05/01 12:30:10;;;;;;;1.80;1.70;;;;;;;;;;4990065;28;20124;-76
2023/05/01 12:32:35;;;;;;;1.60;1.50;;;;;;;;;;4970886;28;20112;-76
2023/05/01 12:35:10;;;;;;;1.77;1.67;;;;;;;;;;4994740;28;20042;-76
2023/05/01 12:37:36;;;;;;;2.25;2.05;;;;;;;;;;4979105;28;20483;-76
2023/05/01 12:40:03;;;;;;;2.38;2.22;;;;;;;;;;4963582;28;20042;-77
2023/05/01 12:42:28;;;;;;;4.15;2.50;;;;;;;;;;4979343;28;20021;-78
2023/05/01 12:44:58;;;;;;;2.38;2.17;;;;;;;;;;4981123;28;20018;-76
2023/05/01 12:47:25;;;;;;;2.47;2.08;;;;;;;;;;4965953;28;20029;-76
2023/05/01 12:49:59;;;;;;;3.13;2.05;;;;;;;;;;4989684;28;20129;-76
2023/05/01 12:52:26;;;;;;;3.67;1.85;;;;;;;;;;4990247;28;20034;-75
2023/05/01 12:55:00;;;;;;;1.58;1.48;;;;;;;;;;4983281;28;20014;-75
2023/05/01 12:57:25;;;;;;;3.15;1.42;;;;;;;;;;4982247;28;20084;-76
2023/05/01 12:59:56;;;;;;;1.92;1.50;;;;;;;;;;4986273;28;20504;-76
2023/05/01 13:02:28;;;;;;;1.67;1.33;;;;;;;;;;4988572;28;20448;-76
2023/05/01 13:05:03;;;;;;;2.08;1.30;;;;;;;;;;4988565;28;20048;-76
2023/05/01 13:07:29;;;;;;;2.00;1.40;;;;;;;;;;4988698;28;20088;-76
2023/05/01 13:09:58;;;;;;;1.63;1.17;;;;;;;;;;4990440;28;20470;-76
2023/05/01 13:12:25;;;;;;;1.02;1.00;;;;;;;;;;5001470;28;20033;-76
2023/05/01 13:14:50;;;;;;;1.30;1.20;;;;;;;;;;4976532;28;20026;-76
2023/05/01 13:17:22;;;;;;;1.52;1.23;;;;;;;;;;4974825;28;20030;-76
2023/05/01 13:19:53;;;;;;;2.78;1.10;;;;;;;;;;4992180;28;20503;-76
2023/05/01 13:22:33;;;;;;;2.88;1.20;;;;;;;;;;4992210;28;20040;-76
2023/05/01 13:24:58;;;;;;;1.80;1.10;;;;;;;;;;4968321;28;20705;-75
2023/05/01 13:27:24;;;;;;;1.20;1.10;;;;;;;;;;4973306;28;20126;-76
2023/05/01 13:29:57;;;;;;;0.90;0.90;;;;;;;;;;4968800;28;20129;-76
2023/05/01 13:32:25;;;;;;;2.70;1.00;;;;;;;;;;4960458;28;20026;-76
2023/05/01 13:34:52;;;;;;;1.55;0.90;;;;;;;;;;4994857;28;20690;-76
2023/05/01 13:37:18;;;;;;;0.82;0.80;;;;;;;;;;4963812;28;20056;-76
2023/05/01 13:39:44;;;;;;;1.30;1.02;;;;;;;;;;4988310;28;20026;-76
2023/05/01 13:42:22;;;;;;;0.63;0.60;;;;;;;;;;4986880;28;20034;-76
2023/05/01 13:44:49;;;;;;;1.98;0.70;;;;;;;;;;4984716;28;20037;-76
2023/05/01 13:47:16;;;;;;;0.93;0.93;;;;;;;;;;4987203;28;20026;-76
2023/05/01 13:49:41;;;;;;;1.30;1.20;;;;;;;;;;4970720;28;20042;-76
2023/05/01 13:52:11;;;;;;;1.13;1.13;;;;;;;;;;4974738;28;21863;-76
2023/05/01 13:54:36;;;;;;;;;;;;;;;;;;4987202;28;20033;-76
2023/05/01 13:57:01;;;;;;;1.40;1.13;;;;;;;;;;4996470;28;20374;-77
2023/05/01 13:59:32;;;;;;;1.73;0.90;;;;;;;;;;4998031;28;20037;-77
2023/05/01 14:01:57;;;;;;;2.05;0.85;;;;;;;;;;4975748;28;20426;-78
2023/05/01 14:04:23;;;;;;;2.30;1.00;;;;;;;;;;5000545;28;20034;-77
2023/05/01 14:06:48;;;;;;;0.75;0.75;;;;;;;;;;4980987;28;20045;-76
2023/05/01 14:09:17;;;;;;;1.15;1.00;;;;;;;;;;4981630;28;20034;-76
2023/05/01 14:11:47;;;;;;;1.00;0.90;;;;;;;;;;4988209;28;20030;-76
2023/05/01 14:14:16;;;;;;;1.10;1.00;;;;;;;;;;4996123;28;20061;-75
2023/05/01 14:16:42;;;;;;;0.88;0.70;;;;;;;;;;4982289;28;20025;-77
2023/05/01 14:19:08;;;;;;;1.85;0.80;;;;;;;;;;4999140;28;20046;-75
2023/05/01 14:21:37;;;;;;;4.18;0.80;;;;;;;;;;4999834;28;20021;-76
2023/05/01 14:24:03;;;;;;;0.85;0.65;;;;;;;;;;4981213;28;20022;-76
2023/05/01 14:26:28;;;;;;;1.92;0.73;;;;;;;;;;4983281;28;20029;-76
2023/05/01 14:28:54;;;;;;;0.93;0.80;;;;;;;;;;4999192;28;20190;-76
2023/05/01 14:31:27;;;;;;;3.10;0.77;;;;;;;;;;5000400;28;20649;-77
2023/05/01 14:33:54;;;;;;;1.60;0.95;;;;;;;;;;4982236;28;20026;-76
2023/05/01 14:36:19;;;;;;;1.63;0.73;;;;;;;;;;4968360;28;20476;-76
2023/05/01 14:38:48;;;;;;;1.88;0.70;;;;;;;;;;4998040;28;20038;-74
2023/05/01 14:41:13;;;;;;;1.42;0.80;;;;;;;;;;4978193;28;20018;-76